createdAt,value
2018-07-27T00:00:26.194Z,5.67
2018-07-27T00:03:50.882Z,5.27
2018-07-27T00:07:15.583Z,6.57
2018-07-27T00:10:40.301Z,5.43
2018-07-27T00:14:05.366Z,5.37
2018-07-27T00:17:30.032Z,5.57
2018-07-27T00:20:54.684Z,5.30
2018-07-27T00:24:19.397Z,9.23
2018-07-27T00:27:44.259Z,5.20
2018-07-27T00:31:08.919Z,4.93
2018-07-27T00:34:33.550Z,4.90
2018-07-27T00:51:33.739Z,5.05
2018-07-27T00:54:58.532Z,5.40
2018-07-27T00:58:23.180Z,5.55
2018-07-27T01:01:47.814Z,5.80
2018-07-27T01:05:12.574Z,6.40
2018-07-27T01:08:37.300Z,5.53
2018-07-27T01:12:01.959Z,5.50
2018-07-27T01:15:26.632Z,5.10
2018-07-27T01:18:51.329Z,5.00
2018-07-27T01:22:16.024Z,5.57
2018-07-27T01:25:40.791Z,6.40
2018-07-27T01:29:05.595Z,5.10
2018-07-27T01:32:30.317Z,6.20
2018-07-27T01:42:42.789Z,5.30
2018-07-27T01:46:07.483Z,5.67
2018-07-27T01:49:32.123Z,5.53
2018-07-27T01:52:56.435Z,5.53
2018-07-27T01:56:21.143Z,5.67
2018-07-27T01:59:45.821Z,5.97
2018-07-27T02:03:10.507Z,5.20
2018-07-27T02:06:35.242Z,4.83
2018-07-27T02:09:59.929Z,5.97
2018-07-27T02:13:24.626Z,5.20
2018-07-27T02:16:49.247Z,5.30
2018-07-27T02:20:13.925Z,4.80
2018-07-27T02:23:38.609Z,5.77
2018-07-27T02:27:03.250Z,5.63
2018-07-27T02:30:28.234Z,5.43
2018-07-27T02:33:53.390Z,5.27
2018-07-27T02:37:18.199Z,6.07
2018-07-27T02:40:42.888Z,7.10
2018-07-27T02:44:07.570Z,8.33
2018-07-27T02:47:32.259Z,5.40
2018-07-27T02:50:57.468Z,6.07
2018-07-27T02:54:22.193Z,5.80
2018-07-27T02:57:46.529Z,5.70
2018-07-27T03:01:11.289Z,6.93
2018-07-27T03:04:36.070Z,5.70
2018-07-27T03:08:00.755Z,6.03
2018-07-27T03:11:25.417Z,5.87
2018-07-27T03:14:50.116Z,6.30
2018-07-27T03:18:14.777Z,5.53
2018-07-27T03:21:39.443Z,5.90
2018-07-27T03:25:04.224Z,5.63
2018-07-27T03:28:28.882Z,5.65
2018-07-27T03:31:53.544Z,5.93
2018-07-27T03:35:18.324Z,5.90
2018-07-27T03:38:42.988Z,6.23
2018-07-27T03:42:07.744Z,6.50
2018-07-27T03:45:32.396Z,6.17
2018-07-27T03:48:57.057Z,7.53
2018-07-27T03:52:21.736Z,7.40
2018-07-27T03:55:46.450Z,8.03
2018-07-27T03:59:11.094Z,6.53
2018-07-27T04:02:35.760Z,6.40
2018-07-27T04:06:00.530Z,7.23
2018-07-27T04:09:25.219Z,8.63
2018-07-27T04:12:49.896Z,6.70
2018-07-27T04:16:14.607Z,5.70
2018-07-27T04:19:39.303Z,5.80
2018-07-27T04:23:03.792Z,6.23
2018-07-27T04:26:28.664Z,6.30
2018-07-27T04:29:53.317Z,7.23
2018-07-27T04:33:17.986Z,7.63
2018-07-27T04:36:42.704Z,5.80
2018-07-27T04:40:07.870Z,7.87
2018-07-27T04:43:32.544Z,6.73
2018-07-27T04:46:57.247Z,6.30
2018-07-27T04:50:21.892Z,6.90
2018-07-27T04:53:46.552Z,6.80
2018-07-27T04:57:10.983Z,7.77
2018-07-27T05:00:35.747Z,7.17
2018-07-27T05:04:00.430Z,7.13
2018-07-27T05:07:25.161Z,8.27
2018-07-27T05:10:50.585Z,6.60
2018-07-27T05:14:15.246Z,7.70
2018-07-27T05:17:39.987Z,7.63
2018-07-27T05:21:04.736Z,9.33
2018-07-27T05:24:29.440Z,7.07
2018-07-27T05:27:54.098Z,7.10
2018-07-27T05:31:18.852Z,9.47
2018-07-27T05:34:43.657Z,7.97
2018-07-27T05:38:08.348Z,9.33
2018-07-27T05:41:33.043Z,7.77
2018-07-27T05:44:57.817Z,9.93
2018-07-27T05:48:22.484Z,7.40
2018-07-27T05:51:47.200Z,9.63
2018-07-27T05:55:12.064Z,8.47
2018-07-27T05:58:36.853Z,9.60
2018-07-27T06:02:01.691Z,10.17
2018-07-27T06:05:26.345Z,6.90
2018-07-27T06:08:51.055Z,7.57
2018-07-27T06:12:15.844Z,11.80
2018-07-27T06:15:40.548Z,9.77
2018-07-27T06:19:05.229Z,10.73
2018-07-27T06:22:29.951Z,10.37
2018-07-27T06:25:54.690Z,8.57
2018-07-27T06:29:19.386Z,10.57
2018-07-27T06:32:44.122Z,7.53
2018-07-27T06:36:09.671Z,7.90
2018-07-27T06:39:34.349Z,7.67
2018-07-27T06:42:59.127Z,7.97
2018-07-27T06:46:23.845Z,7.23
2018-07-27T06:49:48.517Z,9.50
2018-07-27T06:53:13.205Z,7.50
2018-07-27T06:56:37.892Z,9.53
2018-07-27T07:00:02.568Z,9.70
2018-07-27T07:03:27.369Z,7.20
2018-07-27T07:06:51.982Z,7.87
2018-07-27T07:10:16.799Z,8.83
2018-07-27T07:13:41.525Z,8.13
2018-07-27T07:17:06.143Z,7.20
2018-07-27T07:20:30.821Z,8.60
2018-07-27T07:23:55.503Z,7.53
2018-07-27T07:27:20.153Z,8.63
2018-07-27T07:30:44.826Z,7.43
2018-07-27T07:34:09.530Z,12.93
2018-07-27T07:37:34.213Z,7.43
2018-07-27T07:40:58.955Z,9.23
2018-07-27T07:44:23.614Z,8.13
2018-07-27T07:47:47.968Z,6.40
2018-07-27T07:51:12.673Z,6.90
2018-07-27T07:54:37.393Z,8.93
2018-07-27T07:58:02.259Z,8.43
2018-07-27T08:01:27.104Z,7.43
2018-07-27T08:04:51.818Z,7.40
2018-07-27T08:08:16.873Z,9.83
2018-07-27T08:11:41.524Z,7.63
2018-07-27T08:15:06.597Z,7.17
2018-07-27T08:18:31.363Z,7.60
2018-07-27T08:21:56.295Z,8.57
2018-07-27T08:25:21.107Z,8.63
2018-07-27T08:28:45.585Z,7.30
2018-07-27T08:32:10.068Z,6.97
2018-07-27T08:35:34.919Z,7.53
2018-07-27T08:38:59.681Z,7.60
2018-07-27T08:42:24.475Z,9.43
2018-07-27T08:45:49.396Z,7.37
2018-07-27T08:49:14.421Z,9.40
2018-07-27T08:52:39.231Z,8.80
2018-07-27T08:56:03.786Z,7.40
2018-07-27T08:59:28.583Z,9.03
2018-07-27T09:02:53.341Z,10.30
2018-07-27T09:06:18.663Z,8.10
2018-07-27T09:09:43.152Z,7.93
2018-07-27T09:13:07.993Z,8.40
2018-07-27T09:16:32.972Z,8.90
2018-07-27T09:19:57.834Z,8.93
2018-07-27T09:23:23.031Z,8.03
2018-07-27T09:26:47.732Z,7.50
2018-07-27T09:30:12.531Z,11.63
2018-07-27T09:33:37.334Z,7.03
2018-07-27T09:37:01.741Z,7.80
2018-07-27T09:40:26.952Z,7.63
2018-07-27T09:43:51.300Z,7.53
2018-07-27T09:47:16.157Z,7.00
2018-07-27T09:50:41.257Z,7.63
2018-07-27T09:54:06.168Z,8.23
2018-07-27T09:57:30.960Z,8.17
2018-07-27T10:01:01.256Z,7.90
2018-07-27T10:04:25.883Z,7.37
2018-07-27T10:07:50.795Z,9.20
2018-07-27T10:11:15.528Z,10.03
2018-07-27T10:14:40.296Z,7.90
2018-07-27T10:18:05.521Z,9.23
2018-07-27T10:21:30.442Z,7.73
2018-07-27T10:24:55.286Z,7.07
2018-07-27T10:28:21.056Z,7.33
2018-07-27T10:31:46.279Z,6.57
2018-07-27T10:35:15.344Z,6.40
2018-07-27T10:38:41.073Z,7.55
2018-07-27T10:42:09.378Z,6.70
2018-07-27T10:45:34.305Z,6.97
2018-07-27T10:48:59.119Z,7.08
2018-07-27T10:52:23.817Z,6.78
2018-07-27T10:55:48.494Z,7.43
2018-07-27T10:59:13.274Z,7.05
2018-07-27T11:02:38.058Z,6.35
2018-07-27T11:06:02.772Z,6.50
2018-07-27T11:09:27.475Z,6.08
2018-07-27T11:12:51.978Z,6.75
2018-07-27T11:16:16.761Z,7.00
2018-07-27T11:19:41.380Z,6.72
2018-07-27T11:23:06.062Z,6.25
2018-07-27T11:26:30.804Z,6.83
2018-07-27T11:29:55.488Z,6.65
2018-07-27T11:33:20.309Z,5.35
2018-07-27T11:36:45.090Z,5.47
2018-07-27T11:40:09.854Z,5.45
2018-07-27T11:43:34.682Z,5.20
2018-07-27T11:46:59.080Z,5.92
2018-07-27T11:50:23.928Z,5.10
2018-07-27T11:53:48.746Z,5.53
2018-07-27T11:57:13.514Z,4.95
2018-07-27T12:00:38.335Z,5.65
2018-07-27T12:04:03.050Z,5.08
2018-07-27T12:07:27.423Z,4.95
2018-07-27T12:10:51.947Z,5.47
2018-07-27T12:14:16.778Z,4.62
2018-07-27T12:17:41.415Z,5.12
2018-07-27T12:21:08.266Z,4.90
2018-07-27T12:24:33.029Z,5.05
2018-07-27T12:27:57.787Z,4.92
2018-07-27T12:31:22.492Z,5.75
2018-07-27T12:34:47.340Z,5.92
2018-07-27T12:38:12.659Z,5.47
2018-07-27T12:41:37.292Z,4.80
2018-07-27T12:45:02.038Z,6.65
2018-07-27T12:48:26.370Z,5.22
2018-07-27T12:51:51.038Z,6.25
2018-07-27T12:55:15.852Z,4.53
2018-07-27T12:58:40.506Z,4.55
2018-07-27T13:02:05.312Z,4.50
2018-07-27T13:05:30.086Z,4.83
2018-07-27T13:08:55.071Z,4.78
2018-07-27T13:12:19.796Z,4.40
2018-07-27T13:15:44.563Z,4.65
2018-07-27T13:19:09.342Z,6.37
2018-07-27T13:22:34.251Z,4.97
2018-07-27T13:29:40.337Z,4.10
2018-07-27T13:33:05.143Z,5.65
2018-07-27T13:36:29.918Z,4.30
2018-07-27T13:39:56.069Z,5.50
2018-07-27T13:43:20.792Z,3.95
2018-07-27T13:46:45.572Z,4.20
2018-07-27T13:50:11.113Z,4.35
2018-07-27T13:53:35.691Z,3.85
2018-07-27T13:57:00.786Z,4.10
2018-07-27T14:00:25.466Z,4.58
2018-07-27T14:03:50.268Z,3.95
2018-07-27T14:07:14.700Z,4.20
2018-07-27T14:10:39.485Z,4.85
2018-07-27T14:14:04.560Z,4.67
2018-07-27T14:17:29.364Z,4.67
2018-07-27T14:20:54.047Z,4.83
2018-07-27T14:24:18.812Z,4.90
2018-07-27T14:27:43.488Z,4.70
2018-07-27T14:31:08.164Z,5.75
2018-07-27T14:34:32.961Z,4.65
2018-07-27T14:37:57.896Z,4.55
2018-07-27T14:41:22.866Z,4.75
2018-07-27T14:44:47.570Z,4.72
2018-07-27T14:48:12.352Z,5.20
2018-07-27T14:51:37.089Z,5.08
2018-07-27T14:55:01.880Z,6.22
2018-07-27T14:58:26.628Z,4.67
2018-07-27T15:01:51.330Z,4.80
2018-07-27T15:05:16.008Z,4.65
2018-07-27T15:08:40.808Z,4.83
2018-07-27T15:12:05.508Z,6.65
2018-07-27T15:15:30.307Z,4.62
2018-07-27T15:18:54.984Z,5.05
2018-07-27T15:22:19.688Z,4.62
2018-07-27T15:25:44.470Z,4.58
2018-07-27T15:30:33.726Z,5.20
2018-07-27T15:34:01.038Z,5.40
2018-07-27T15:37:25.893Z,5.47
2018-07-27T15:40:50.528Z,4.72
2018-07-27T15:44:15.309Z,4.95
2018-07-27T15:47:40.330Z,5.85
2018-07-27T15:51:05.287Z,4.62
2018-07-27T15:54:30.014Z,4.78
2018-07-27T15:57:54.691Z,4.25
2018-07-27T16:01:19.376Z,4.33
2018-07-27T16:04:43.654Z,4.25
2018-07-27T16:08:10.043Z,4.90
2018-07-27T16:11:35.068Z,4.37
2018-07-27T16:14:59.806Z,4.20
2018-07-27T16:18:24.540Z,4.10
2018-07-27T16:21:49.176Z,4.30
2018-07-27T16:25:13.886Z,4.37
2018-07-27T16:28:38.501Z,4.55
2018-07-27T16:32:03.199Z,4.37
2018-07-27T16:35:27.926Z,4.15
2018-07-27T16:38:52.592Z,4.12
2018-07-27T16:49:04.738Z,7.45
2018-07-27T16:52:29.396Z,4.95
2018-07-27T16:55:54.091Z,4.60
2018-07-27T16:59:18.732Z,4.75
2018-07-27T17:02:43.377Z,4.37
2018-07-27T17:06:07.793Z,4.10
2018-07-27T17:09:32.438Z,7.08
2018-07-27T17:12:57.133Z,4.25
2018-07-27T17:16:21.789Z,4.03
2018-07-27T17:19:46.456Z,3.85
2018-07-27T17:23:12.255Z,3.92
2018-07-27T17:26:36.917Z,3.65
2018-07-27T17:30:01.360Z,4.28
2018-07-27T17:33:26.963Z,3.70
2018-07-27T17:36:51.839Z,4.10
2018-07-27T17:40:16.662Z,3.30
2018-07-27T17:43:41.369Z,3.90
2018-07-27T17:47:06.724Z,4.70
2018-07-27T17:50:31.374Z,4.47
2018-07-27T17:53:56.402Z,4.45
2018-07-27T17:57:21.118Z,4.70
2018-07-27T18:00:45.965Z,4.95
2018-07-27T18:04:10.742Z,5.85
2018-07-27T18:07:35.551Z,4.55
2018-07-27T18:11:00.129Z,4.92
2018-07-27T18:14:24.917Z,4.30
2018-07-27T18:17:49.768Z,4.67
2018-07-27T18:21:14.564Z,4.83
2018-07-27T18:24:39.319Z,5.05
2018-07-27T22:50:17.432Z,5.25
2018-07-27T23:04:00.484Z,16.73
2018-07-27T23:07:25.713Z,8.13
2018-07-27T23:10:50.511Z,5.67
2018-07-27T23:14:15.457Z,4.80
2018-07-27T23:17:40.455Z,4.97
2018-07-27T23:21:05.918Z,5.10
2018-07-27T23:24:34.718Z,4.23
2018-07-27T23:28:00.111Z,5.97
2018-07-27T23:31:24.764Z,5.00
2018-07-27T23:34:49.437Z,5.53
2018-07-27T23:38:14.181Z,6.27
2018-07-27T23:41:38.925Z,6.77
2018-07-27T23:45:03.693Z,5.63
2018-07-27T23:48:28.205Z,5.33
2018-07-27T23:51:52.876Z,5.77
2018-07-27T23:55:17.637Z,5.67
2018-07-27T23:58:42.303Z,16.57
